createdAt,value
2018-11-02T00:01:27.776Z,19.60
2018-11-02T00:03:56.222Z,16.05
2018-11-02T00:06:24.335Z,13.13
2018-11-02T00:08:52.199Z,13.78
2018-11-02T00:11:20.594Z,11.40
2018-11-02T00:13:49.597Z,12.93
2018-11-02T00:16:17.583Z,13.30
2018-11-02T00:18:45.571Z,12.50
2018-11-02T00:21:13.554Z,16.63
2018-11-02T00:23:41.542Z,10.88
2018-11-02T00:26:09.527Z,14.10
2018-11-02T00:28:37.514Z,10.60
2018-11-02T00:31:05.508Z,13.28
2018-11-02T00:33:33.510Z,12.07
2018-11-02T00:36:01.486Z,15.18
2018-11-02T00:38:29.481Z,11.60
2018-11-02T00:40:57.460Z,14.45
2018-11-02T00:43:25.438Z,13.05
2018-11-02T00:45:53.413Z,11.88
2018-11-02T00:48:21.398Z,13.25
2018-11-02T00:50:49.373Z,15.50
2018-11-02T00:53:17.361Z,13.27
2018-11-02T00:55:45.394Z,13.90
2018-11-02T00:58:13.383Z,12.20
2018-11-02T01:00:41.355Z,17.62
2018-11-02T01:03:09.347Z,14.55
2018-11-02T01:05:37.327Z,9.63
2018-11-02T01:08:05.333Z,13.45
2018-11-02T01:10:33.344Z,11.15
2018-11-02T01:13:01.306Z,10.18
2018-11-02T01:15:29.286Z,11.55
2018-11-02T01:17:57.262Z,11.77
2018-11-02T01:20:25.246Z,14.47
2018-11-02T01:22:53.227Z,15.00
2018-11-02T01:25:21.210Z,17.25
2018-11-02T01:27:49.219Z,16.20
2018-11-02T01:30:17.217Z,18.62
2018-11-02T01:32:45.199Z,17.48
2018-11-02T01:35:13.193Z,18.00
2018-11-02T01:37:41.174Z,9.40
2018-11-02T01:40:09.165Z,12.90
2018-11-02T01:42:37.154Z,17.30
2018-11-02T01:45:05.138Z,15.93
2018-11-02T01:47:33.119Z,14.58
2018-11-02T01:50:01.118Z,15.85
2018-11-02T01:52:29.102Z,14.20
2018-11-02T01:54:57.086Z,14.63
2018-11-02T01:57:25.077Z,13.90
2018-11-02T01:59:53.074Z,16.40
2018-11-02T02:02:21.062Z,15.93
2018-11-02T02:04:49.059Z,13.00
2018-11-02T02:07:17.043Z,11.35
2018-11-02T02:09:45.041Z,12.40
2018-11-02T02:12:13.025Z,15.17
2018-11-02T02:14:41.096Z,12.43
2018-11-02T02:17:09.005Z,14.70
2018-11-02T02:19:37.012Z,14.17
2018-11-02T02:22:05.209Z,16.00
2018-11-02T02:24:33.186Z,12.15
2018-11-02T02:27:01.204Z,15.63
2018-11-02T02:29:29.170Z,10.90
2018-11-02T02:31:57.197Z,17.07
2018-11-02T02:34:25.178Z,13.53
2018-11-02T02:36:53.170Z,12.68
2018-11-02T02:39:21.323Z,15.18
2018-11-02T02:41:49.318Z,13.30
2018-11-02T02:44:17.305Z,10.23
2018-11-02T02:46:45.298Z,12.20
2018-11-02T02:49:13.287Z,12.80
2018-11-02T02:51:41.277Z,11.18
2018-11-02T02:54:09.253Z,12.45
2018-11-02T02:56:37.257Z,12.97
2018-11-02T02:59:05.259Z,13.20
2018-11-02T03:01:33.250Z,14.95
2018-11-02T03:04:01.231Z,10.50
2018-11-02T03:06:29.248Z,12.60
2018-11-02T03:08:57.232Z,10.32
2018-11-02T03:11:25.166Z,10.55
2018-11-02T03:13:53.143Z,10.82
2018-11-02T03:16:21.127Z,10.23
2018-11-02T03:18:49.148Z,16.57
2018-11-02T03:21:17.125Z,11.80
2018-11-02T03:23:45.090Z,13.55
2018-11-02T03:26:13.070Z,13.03
2018-11-02T03:28:41.046Z,12.80
2018-11-02T03:31:09.141Z,12.33
2018-11-02T03:33:37.125Z,8.45
2018-11-02T03:36:05.121Z,12.10
2018-11-02T03:38:33.097Z,13.32
2018-11-02T03:41:01.128Z,12.15
2018-11-02T03:43:29.122Z,13.05
2018-11-02T03:45:57.093Z,9.48
2018-11-02T03:48:25.090Z,12.63
2018-11-02T03:50:53.307Z,11.57
2018-11-02T03:53:21.277Z,13.08
2018-11-02T03:55:49.874Z,9.83
2018-11-02T03:58:17.846Z,10.20
2018-11-02T04:00:46.542Z,13.85
2018-11-02T04:03:14.509Z,9.05
2018-11-02T04:05:42.514Z,10.80
2018-11-02T04:08:10.477Z,10.50
2018-11-02T04:10:38.485Z,8.40
2018-11-02T04:13:06.543Z,10.68
2018-11-02T04:15:34.514Z,9.68
2018-11-02T04:18:02.499Z,12.53
2018-11-02T04:20:30.473Z,14.15
2018-11-02T04:22:58.538Z,14.70
2018-11-02T04:25:26.513Z,10.50
2018-11-02T04:27:54.504Z,16.48
2018-11-02T04:30:22.478Z,14.18
2018-11-02T04:32:50.469Z,24.67
2018-11-02T04:35:18.442Z,10.28
2018-11-02T04:37:46.426Z,15.13
2018-11-02T04:40:14.393Z,10.87
2018-11-02T04:42:42.377Z,9.70
2018-11-02T04:45:10.355Z,10.53
2018-11-02T04:47:38.345Z,15.97
2018-11-02T04:50:06.748Z,14.70
2018-11-02T04:52:34.771Z,14.55
2018-11-02T04:55:02.757Z,12.13
2018-11-02T04:57:30.729Z,9.43
2018-11-02T04:59:58.700Z,14.27
2018-11-02T05:02:26.720Z,11.30
2018-11-02T05:04:54.693Z,10.48
2018-11-02T05:07:22.680Z,16.65
2018-11-02T05:09:50.684Z,10.70
2018-11-02T05:12:18.674Z,10.50
2018-11-02T05:14:46.644Z,15.65
2018-11-02T05:17:14.632Z,12.03
2018-11-02T05:19:42.609Z,15.50
2018-11-02T05:22:11.745Z,12.93
2018-11-02T05:24:39.850Z,10.93
2018-11-02T05:27:07.831Z,9.10
2018-11-02T05:29:35.800Z,14.77
2018-11-02T05:32:03.784Z,13.53
2018-11-02T05:34:31.792Z,10.37
2018-11-02T05:36:59.824Z,11.50
2018-11-02T05:39:27.843Z,8.78
2018-11-02T05:41:55.778Z,11.22
2018-11-02T05:44:23.808Z,10.90
2018-11-02T05:46:51.815Z,8.93
2018-11-02T05:49:20.021Z,12.23
2018-11-02T05:51:47.977Z,11.05
2018-11-02T05:54:16.023Z,8.87
2018-11-02T05:56:44.000Z,9.33
2018-11-02T05:59:11.982Z,12.30
2018-11-02T06:01:40.010Z,8.20
2018-11-02T06:04:08.013Z,9.60
2018-11-02T06:06:36.020Z,11.73
2018-11-02T06:09:05.085Z,10.75
2018-11-02T06:11:33.045Z,7.57
2018-11-02T06:14:01.021Z,10.43
2018-11-02T06:16:29.001Z,11.70
2018-11-02T06:18:56.954Z,9.40
2018-11-02T06:21:24.927Z,7.62
2018-11-02T06:23:52.956Z,12.10
2018-11-02T06:26:20.955Z,8.07
2018-11-02T06:28:48.925Z,10.17
2018-11-02T06:31:16.926Z,10.57
2018-11-02T06:33:45.365Z,12.93
2018-11-02T06:36:13.337Z,7.20
2018-11-02T06:38:41.346Z,8.50
2018-11-02T06:41:09.295Z,9.10
2018-11-02T06:43:37.269Z,11.47
2018-11-02T06:46:05.246Z,16.30
2018-11-02T06:48:33.280Z,17.63
2018-11-02T06:51:01.289Z,17.13
2018-11-02T06:53:29.241Z,22.77
2018-11-02T06:55:57.220Z,24.97
2018-11-02T06:58:25.260Z,33.60
2018-11-02T07:00:53.301Z,30.53
2018-11-02T07:03:21.390Z,29.03
2018-11-02T07:05:49.417Z,23.63
2018-11-02T07:08:17.459Z,15.40
2018-11-02T07:10:45.377Z,14.83
2018-11-02T07:13:13.368Z,14.60
2018-11-02T07:15:41.388Z,8.80
2018-11-02T07:18:09.373Z,12.67
2018-11-02T07:20:37.373Z,9.73
2018-11-02T07:23:05.785Z,10.03
2018-11-02T07:25:33.772Z,10.30
2018-11-02T07:28:01.780Z,13.93
2018-11-02T07:30:29.810Z,12.73
2018-11-02T07:32:57.778Z,11.57
2018-11-02T07:35:25.757Z,12.77
2018-11-02T07:37:53.757Z,11.10
2018-11-02T07:40:21.741Z,12.83
2018-11-02T07:42:49.710Z,10.67
2018-11-02T07:45:17.731Z,12.80
2018-11-02T07:47:45.737Z,14.23
2018-11-02T07:50:13.958Z,13.53
2018-11-02T07:52:42.161Z,10.73
2018-11-02T07:55:11.533Z,9.60
2018-11-02T07:57:39.851Z,10.93
2018-11-02T08:00:10.450Z,9.27
2018-11-02T08:02:38.863Z,10.10
2018-11-02T08:05:06.854Z,15.70
2018-11-02T08:07:35.056Z,11.10
2018-11-02T08:10:03.030Z,11.97
2018-11-02T08:12:31.048Z,14.40
2018-11-02T08:14:59.034Z,12.40
2018-11-02T08:17:27.139Z,13.00
2018-11-02T08:19:55.099Z,11.23
2018-11-02T08:22:23.112Z,15.00
2018-11-02T08:24:51.154Z,14.70
2018-11-02T08:27:19.145Z,17.37
2018-11-02T08:30:02.754Z,12.73
2018-11-02T08:32:30.751Z,10.70
2018-11-02T08:34:58.754Z,8.40
2018-11-02T08:37:26.747Z,8.27
2018-11-02T08:39:54.968Z,12.83
2018-11-02T08:42:22.970Z,8.00
2018-11-02T08:44:51.058Z,5.97
2018-11-02T08:47:19.157Z,6.90
2018-11-02T08:49:47.149Z,6.40
2018-11-02T08:52:15.223Z,8.63
2018-11-02T08:54:43.336Z,9.27
2018-11-02T08:57:11.357Z,7.37
2018-11-02T08:59:39.372Z,9.77
2018-11-02T09:02:07.385Z,8.50
2018-11-02T09:04:35.363Z,7.07
2018-11-02T09:07:03.414Z,7.90
2018-11-02T09:09:31.381Z,5.07
2018-11-02T09:11:59.453Z,7.70
2018-11-02T09:14:27.405Z,10.87
2018-11-02T09:16:55.407Z,6.07
2018-11-02T09:19:23.464Z,9.17
2018-11-02T09:21:51.493Z,7.97
2018-11-02T09:24:19.406Z,8.23
2018-11-02T09:26:47.406Z,7.00
2018-11-02T09:29:15.477Z,9.77
2018-11-02T09:31:43.482Z,8.60
2018-11-02T09:34:11.505Z,13.70
2018-11-02T09:36:39.535Z,11.27
2018-11-02T09:39:08.703Z,10.20
2018-11-02T09:41:36.738Z,12.80
2018-11-02T09:44:05.082Z,7.80
2018-11-02T09:46:33.138Z,8.30
2018-11-02T09:49:01.214Z,16.03
2018-11-02T09:51:29.308Z,8.30
2018-11-02T09:53:57.373Z,8.00
2018-11-02T09:56:25.370Z,9.97
2018-11-02T09:58:53.356Z,7.10
2018-11-02T10:01:21.426Z,8.73
2018-11-02T10:03:49.491Z,9.40
2018-11-02T10:06:17.596Z,11.93
2018-11-02T10:08:45.583Z,10.77
2018-11-02T10:11:13.717Z,13.07
2018-11-02T10:13:41.840Z,12.50
2018-11-02T10:16:10.014Z,10.13
2018-11-02T10:18:38.545Z,11.80
2018-11-02T10:21:06.621Z,17.03
2018-11-02T10:27:05.936Z,10.13
2018-11-02T10:29:33.969Z,12.10
2018-11-02T10:32:02.007Z,14.33
2018-11-02T10:34:30.235Z,14.23
2018-11-02T10:36:58.317Z,22.87
2018-11-02T10:39:26.414Z,15.33
2018-11-02T10:41:55.118Z,14.20
2018-11-02T10:44:24.278Z,11.53
2018-11-02T10:46:52.217Z,13.07
2018-11-02T10:49:20.332Z,20.87
2018-11-02T10:51:48.283Z,13.17
2018-11-02T10:54:16.329Z,12.67
2018-11-02T10:56:44.399Z,11.17
2018-11-02T10:59:12.474Z,12.40
2018-11-02T11:01:45.943Z,19.13
2018-11-02T11:04:13.943Z,20.70
2018-11-02T11:06:41.919Z,30.77
2018-11-02T11:09:11.038Z,11.20
2018-11-02T11:11:39.507Z,15.37
2018-11-02T11:14:07.538Z,12.80
2018-11-02T11:16:35.533Z,13.87
2018-11-02T11:19:03.680Z,14.40
2018-11-02T11:21:31.848Z,27.33
2018-11-02T11:23:59.847Z,13.27
2018-11-02T11:26:27.836Z,13.60
2018-11-02T11:28:55.826Z,12.63
2018-11-02T11:31:23.880Z,26.97
2018-11-02T11:33:51.959Z,18.57
2018-11-02T11:36:19.970Z,16.87
2018-11-02T11:38:47.975Z,12.13
2018-11-02T11:41:16.071Z,20.97
2018-11-02T11:43:44.169Z,21.33
2018-11-02T11:46:12.167Z,20.53
2018-11-02T11:48:40.247Z,21.83
2018-11-02T11:51:08.253Z,13.27
2018-11-02T11:53:36.282Z,15.67
2018-11-02T11:56:04.489Z,20.93
2018-11-02T11:58:32.516Z,17.30
2018-11-02T12:01:00.568Z,15.07
2018-11-02T12:03:28.653Z,18.67
2018-11-02T12:05:56.737Z,14.47
2018-11-02T12:08:24.800Z,18.33
2018-11-02T12:10:52.834Z,18.93
2018-11-02T12:13:20.923Z,18.33
2018-11-02T12:15:48.988Z,23.33
2018-11-02T12:18:17.006Z,20.53
2018-11-02T12:20:45.046Z,15.03
2018-11-02T12:23:13.039Z,17.90
2018-11-02T12:25:41.035Z,16.97
2018-11-02T12:28:09.091Z,18.27
2018-11-02T12:30:37.129Z,13.47
2018-11-02T12:33:15.388Z,11.00
2018-11-02T12:35:44.917Z,11.80
2018-11-02T12:38:13.273Z,13.07
2018-11-02T12:40:41.834Z,12.70
2018-11-02T12:43:10.862Z,13.10
2018-11-02T12:45:40.050Z,18.30
2018-11-02T12:48:12.022Z,11.03
2018-11-02T12:50:40.741Z,13.10
2018-11-02T12:53:10.364Z,15.77
2018-11-02T12:55:40.779Z,12.73
2018-11-02T12:58:09.009Z,16.40
2018-11-02T13:00:37.027Z,13.13
2018-11-02T13:03:05.048Z,13.03
2018-11-02T13:05:33.051Z,18.57
2018-11-02T13:08:01.067Z,13.03
2018-11-02T13:10:29.102Z,23.67
2018-11-02T13:12:57.101Z,13.50
2018-11-02T13:15:25.506Z,13.53
2018-11-02T13:17:53.631Z,20.43
2018-11-02T13:20:21.836Z,27.07
2018-11-02T13:22:50.536Z,20.80
2018-11-02T13:25:19.613Z,14.73
2018-11-02T13:27:48.400Z,16.00
2018-11-02T13:30:16.610Z,14.00
2018-11-02T13:32:44.534Z,11.80
2018-11-02T13:35:14.167Z,13.27
2018-11-02T13:37:42.870Z,12.10
2018-11-02T13:40:12.101Z,12.30
2018-11-02T13:42:40.510Z,14.27
2018-11-02T13:45:09.778Z,13.37
2018-11-02T13:47:37.907Z,10.20
2018-11-02T13:50:06.125Z,13.97
2018-11-02T13:52:34.106Z,9.97
2018-11-02T13:55:02.274Z,12.80
2018-11-02T13:57:30.279Z,10.20
2018-11-02T13:59:58.327Z,9.47
2018-11-02T14:02:26.334Z,9.63
2018-11-02T14:04:54.321Z,8.73
2018-11-02T14:07:22.330Z,10.90
2018-11-02T14:09:50.428Z,10.77
2018-11-02T14:12:18.417Z,10.90
2018-11-02T14:14:46.425Z,7.77
2018-11-02T14:17:14.428Z,12.83
2018-11-02T14:19:42.419Z,12.60
2018-11-02T14:22:10.410Z,18.67
2018-11-02T14:24:38.433Z,10.17
2018-11-02T14:27:06.430Z,16.07
2018-11-02T14:29:34.757Z,18.60
2018-11-02T14:32:02.694Z,11.43
2018-11-02T14:34:30.686Z,12.53
2018-11-02T14:36:58.674Z,9.27
2018-11-02T14:39:26.658Z,13.70
2018-11-02T14:41:54.708Z,13.13
2018-11-02T14:44:22.746Z,9.03
2018-11-02T14:46:50.746Z,9.77
2018-11-02T14:49:18.726Z,7.50
2018-11-02T14:51:46.729Z,6.40
2018-11-02T14:54:14.718Z,11.67
2018-11-02T14:56:42.712Z,6.13
2018-11-02T14:59:10.709Z,6.30
2018-11-02T15:01:38.732Z,9.23
2018-11-02T15:04:06.781Z,7.00
2018-11-02T15:06:34.763Z,7.27
2018-11-02T15:09:02.778Z,18.37
2018-11-02T15:11:30.927Z,8.33
2018-11-02T15:13:58.903Z,8.37
2018-11-02T15:16:27.112Z,5.63
2018-11-02T15:18:55.113Z,9.17
2018-11-02T15:21:23.265Z,8.40
2018-11-02T15:23:51.289Z,7.27
2018-11-02T15:26:19.310Z,13.43
2018-11-02T15:28:47.270Z,8.87
2018-11-02T15:31:15.287Z,12.53
2018-11-02T15:33:43.291Z,10.00
2018-11-02T15:36:11.285Z,9.80
2018-11-02T15:38:39.266Z,12.97
2018-11-02T15:41:07.289Z,8.10
2018-11-02T15:43:35.300Z,13.00
2018-11-02T15:46:03.294Z,17.33
2018-11-02T15:48:31.283Z,10.97
2018-11-02T15:50:59.318Z,11.93
2018-11-02T15:53:27.490Z,11.73
2018-11-02T15:55:55.547Z,11.10
2018-11-02T15:58:23.586Z,10.10
2018-11-02T16:00:51.636Z,14.07
2018-11-02T16:03:19.877Z,11.60
2018-11-02T16:05:47.871Z,9.47
2018-11-02T16:08:15.880Z,11.07
2018-11-02T16:10:43.867Z,13.50
2018-11-02T16:13:11.874Z,13.63
2018-11-02T16:15:39.957Z,13.47
2018-11-02T16:18:07.966Z,33.00
2018-11-02T16:20:36.014Z,18.37
2018-11-02T16:23:04.136Z,21.20
2018-11-02T16:25:32.136Z,26.37
2018-11-02T16:28:00.188Z,26.90
2018-11-02T16:30:28.175Z,20.93
2018-11-02T16:32:56.175Z,18.40
2018-11-02T16:35:24.201Z,18.03
2018-11-02T16:37:52.215Z,23.60
2018-11-02T16:40:20.286Z,16.27
2018-11-02T16:42:48.371Z,17.73
2018-11-02T16:45:16.392Z,15.90
2018-11-02T16:47:44.702Z,22.57
2018-11-02T16:50:13.893Z,22.70
2018-11-02T16:52:42.524Z,21.93
2018-11-02T16:55:10.677Z,23.80
2018-11-02T16:57:38.997Z,20.60
2018-11-02T17:00:15.195Z,21.07
2018-11-02T17:02:44.002Z,24.73
2018-11-02T17:05:11.979Z,24.57
2018-11-02T17:07:40.576Z,23.23
2018-11-02T17:10:09.641Z,16.53
2018-11-02T17:12:37.908Z,27.87
2018-11-02T17:15:06.029Z,18.23
2018-11-02T17:17:34.162Z,22.87
2018-11-02T17:20:02.362Z,20.90
2018-11-02T17:22:30.680Z,20.10
2018-11-02T17:24:58.686Z,24.93
2018-11-02T17:27:26.723Z,21.50
2018-11-02T17:29:54.778Z,23.13
2018-11-02T17:32:22.960Z,21.97
2018-11-02T17:34:51.254Z,26.33
2018-11-02T17:37:19.882Z,22.23
2018-11-02T17:39:48.259Z,21.93
2018-11-02T17:42:16.649Z,29.30
2018-11-02T17:44:44.985Z,25.43
2018-11-02T17:47:12.982Z,27.93
2018-11-02T17:49:41.118Z,27.50
2018-11-02T17:52:09.304Z,22.03
2018-11-02T17:54:37.745Z,25.37
2018-11-02T17:57:06.267Z,25.10
2018-11-02T17:59:34.751Z,26.57
2018-11-02T18:02:02.955Z,28.00
2018-11-02T18:04:31.403Z,27.03
2018-11-02T18:07:00.065Z,23.43
2018-11-02T18:09:28.236Z,28.27
2018-11-02T18:11:56.826Z,23.67
2018-11-02T18:14:25.084Z,25.93
2018-11-02T18:16:53.239Z,26.20
2018-11-02T18:19:22.889Z,23.20
2018-11-02T18:21:51.090Z,20.47
2018-11-02T18:24:19.340Z,22.43
2018-11-02T18:26:47.999Z,26.40
2018-11-02T18:29:16.317Z,23.50
2018-11-02T18:31:44.603Z,30.47
2018-11-02T18:34:13.135Z,26.87
2018-11-02T18:36:41.410Z,27.57
2018-11-02T18:39:11.129Z,27.37
2018-11-02T18:41:39.315Z,27.00
2018-11-02T18:44:07.599Z,33.90
2018-11-02T18:46:36.782Z,22.43
2018-11-02T18:49:04.903Z,26.73
2018-11-02T18:51:32.999Z,28.23
2018-11-02T18:54:01.472Z,38.10
2018-11-02T18:56:29.563Z,45.33
2018-11-02T18:58:58.065Z,39.87
2018-11-02T19:01:26.436Z,51.60
2018-11-02T19:03:54.671Z,61.60
2018-11-02T19:06:22.904Z,57.00
2018-11-02T19:08:52.177Z,59.10
2018-11-02T19:11:21.942Z,66.33
2018-11-02T19:13:49.988Z,60.70
2018-11-02T19:16:18.697Z,56.23
2018-11-02T19:18:47.043Z,49.17
2018-11-02T19:21:15.232Z,56.57
2018-11-02T19:23:43.329Z,53.57
2018-11-02T19:26:11.356Z,52.00
2018-11-02T19:28:39.407Z,50.67
2018-11-02T19:31:07.403Z,42.40
2018-11-02T19:33:35.771Z,44.60
2018-11-02T19:36:03.762Z,43.10
2018-11-02T19:38:31.845Z,49.70
2018-11-02T19:40:59.828Z,38.57
2018-11-02T19:43:27.897Z,42.27
2018-11-02T19:45:55.924Z,42.20
2018-11-02T19:48:24.327Z,44.50
2018-11-02T19:50:52.457Z,41.17
2018-11-02T19:53:20.463Z,48.63
2018-11-02T19:55:48.749Z,59.83
2018-11-02T19:58:16.505Z,51.33
2018-11-02T20:00:44.560Z,53.20
2018-11-02T20:03:12.617Z,47.40
2018-11-02T20:05:41.636Z,50.03
2018-11-02T20:08:09.683Z,50.67
2018-11-02T20:10:37.720Z,45.47
2018-11-02T20:13:05.718Z,37.13
2018-11-02T20:15:33.728Z,36.57
2018-11-02T20:18:01.743Z,50.30
2018-11-02T20:20:29.774Z,50.27
2018-11-02T20:22:57.816Z,43.83
2018-11-02T20:25:25.834Z,44.37
2018-11-02T20:27:53.818Z,36.00
2018-11-02T20:30:22.163Z,33.80
2018-11-02T20:32:50.195Z,36.00
2018-11-02T20:35:18.190Z,33.33
2018-11-02T20:37:46.196Z,32.43
2018-11-02T20:40:16.063Z,33.20
2018-11-02T20:42:44.734Z,39.20
2018-11-02T20:45:12.869Z,33.17
2018-11-02T20:47:46.510Z,44.67
2018-11-02T20:50:15.992Z,37.37
2018-11-02T20:52:47.532Z,46.50
2018-11-02T20:55:16.798Z,49.53
2018-11-02T20:57:46.787Z,39.80
2018-11-02T21:00:25.480Z,41.63
2018-11-02T21:02:53.689Z,45.53
2018-11-02T21:05:22.247Z,37.00
2018-11-02T21:07:50.788Z,40.60
2018-11-02T21:10:19.752Z,31.03
2018-11-02T21:12:47.880Z,39.70
2018-11-02T21:15:17.146Z,38.27
2018-11-02T21:17:45.137Z,35.50
2018-11-02T21:20:15.574Z,34.13
2018-11-02T21:22:43.718Z,36.73
2018-11-02T21:25:12.343Z,31.77
2018-11-02T21:27:41.022Z,39.37
2018-11-02T21:30:10.214Z,37.93
2018-11-02T21:32:38.235Z,32.43
2018-11-02T21:35:06.581Z,43.07
2018-11-02T21:37:34.628Z,39.03
2018-11-02T21:40:02.661Z,33.57
2018-11-02T21:42:30.675Z,35.20
2018-11-02T21:44:58.691Z,36.83
2018-11-02T21:47:26.716Z,33.27
2018-11-02T21:49:54.728Z,35.13
2018-11-02T21:52:22.713Z,28.83
2018-11-02T21:54:50.736Z,37.47
2018-11-02T21:57:18.713Z,29.07
2018-11-02T21:59:46.689Z,28.53
2018-11-02T22:02:14.716Z,31.27
2018-11-02T22:04:42.706Z,34.37
2018-11-02T22:07:10.693Z,36.20
2018-11-02T22:09:38.706Z,39.20
2018-11-02T22:12:06.694Z,38.43
2018-11-02T22:14:34.772Z,51.10
2018-11-02T22:17:02.752Z,45.67
2018-11-02T22:19:30.889Z,46.00
2018-11-02T22:21:58.807Z,39.83
2018-11-02T22:24:26.843Z,41.10
2018-11-02T22:26:54.844Z,29.10
2018-11-02T22:29:22.985Z,35.63
2018-11-02T22:31:50.969Z,34.33
2018-11-02T22:34:19.085Z,28.70
2018-11-02T22:36:47.108Z,32.00
2018-11-02T22:39:15.128Z,26.20
2018-11-02T22:41:43.109Z,38.80
2018-11-02T22:44:11.085Z,33.77
2018-11-02T22:46:39.102Z,36.37
2018-11-02T22:49:07.097Z,32.20
2018-11-02T22:51:35.086Z,30.50
2018-11-02T22:56:37.783Z,30.40
2018-11-02T22:59:05.765Z,35.13
2018-11-02T23:01:33.749Z,31.33
2018-11-02T23:04:01.885Z,38.40
2018-11-02T23:06:30.160Z,23.63
2018-11-02T23:08:58.146Z,29.30
2018-11-02T23:11:26.137Z,26.77
2018-11-02T23:13:54.262Z,21.90
2018-11-02T23:16:22.245Z,27.07
2018-11-02T23:18:50.409Z,35.23
2018-11-02T23:21:18.671Z,28.20
2018-11-02T23:23:46.703Z,24.90
2018-11-02T23:26:14.773Z,25.33
2018-11-02T23:28:42.757Z,25.77
2018-11-02T23:31:10.772Z,27.60
2018-11-02T23:33:38.805Z,26.03
2018-11-02T23:36:06.785Z,25.70
2018-11-02T23:38:34.793Z,27.33
2018-11-02T23:41:02.816Z,29.13
2018-11-02T23:43:30.810Z,27.10
2018-11-02T23:45:58.797Z,22.50
2018-11-02T23:48:26.777Z,21.17
2018-11-02T23:50:54.793Z,23.63
2018-11-02T23:53:22.793Z,22.30
2018-11-02T23:55:50.761Z,26.70
2018-11-02T23:58:18.886Z,29.00
